createdAt,value
2019-04-23T00:04:16.877Z,3.77
2019-04-23T00:07:08.154Z,3.98
2019-04-23T00:09:27.681Z,3.67
2019-04-23T00:14:43.658Z,3.50
2019-04-23T00:17:04.649Z,3.90
2019-04-23T00:19:43.321Z,3.95
2019-04-23T00:22:20.306Z,3.80
2019-04-23T00:27:45.750Z,3.72
2019-04-23T00:30:22.557Z,3.83
2019-04-23T00:32:36.329Z,3.30
2019-04-23T00:37:35.236Z,3.62
2019-04-23T00:40:19.061Z,3.62
2019-04-23T00:42:44.697Z,3.60
2019-04-23T00:45:07.871Z,3.90
2019-04-23T00:47:46.096Z,3.70
2019-04-23T00:50:21.271Z,3.67
2019-04-23T00:52:46.827Z,3.80
2019-04-23T00:55:31.275Z,3.60
2019-04-23T00:57:48.847Z,3.47
2019-04-23T01:00:23.855Z,3.80
2019-04-23T01:02:53.144Z,3.22
2019-04-23T01:05:27.585Z,3.65
2019-04-23T01:07:49.794Z,3.67
2019-04-23T01:10:52.562Z,3.47
2019-04-23T01:13:22.907Z,3.83
2019-04-23T01:15:57.705Z,3.27
2019-04-23T01:20:58.877Z,3.15
2019-04-23T01:23:37.766Z,3.52
2019-04-23T01:26:21.006Z,3.25
2019-04-23T01:31:31.141Z,3.20
2019-04-23T01:33:55.428Z,3.20
2019-04-23T01:36:33.080Z,3.52
2019-04-23T01:39:08.456Z,3.27
2019-04-23T01:41:33.594Z,3.60
2019-04-23T01:44:06.933Z,3.42
2019-04-23T01:46:45.858Z,3.45
2019-04-23T01:49:14.935Z,3.50
2019-04-23T01:51:56.345Z,3.35
2019-04-23T01:54:20.663Z,3.50
2019-04-23T01:56:47.382Z,3.67
2019-04-23T01:59:38.921Z,3.27
2019-04-23T02:04:28.889Z,3.40
2019-04-23T02:07:04.490Z,3.22
2019-04-23T02:09:26.064Z,3.52
2019-04-23T02:12:04.155Z,3.35
2019-04-23T02:14:36.478Z,3.05
2019-04-23T02:17:04.549Z,3.50
2019-04-23T02:19:40.497Z,4.03
2019-04-23T02:22:19.360Z,3.50
2019-04-23T02:24:49.586Z,3.30
2019-04-23T02:27:22.402Z,3.52
2019-04-23T02:32:31.813Z,3.27
2019-04-23T02:37:51.625Z,3.58
2019-04-23T02:42:51.942Z,3.33
2019-04-23T02:45:02.153Z,3.62
2019-04-23T02:47:48.509Z,3.42
2019-04-23T02:55:20.802Z,3.40
2019-04-23T02:57:50.402Z,3.37
2019-04-23T03:03:01.868Z,3.20
2019-04-23T03:05:24.526Z,3.20
2019-04-23T03:10:31.706Z,3.20
2019-04-23T03:13:11.925Z,2.80
2019-04-23T03:15:57.179Z,3.00
2019-04-23T03:18:31.483Z,3.17
2019-04-23T03:21:21.803Z,2.92
2019-04-23T03:23:50.059Z,2.92
2019-04-23T03:26:45.421Z,3.08
2019-04-23T03:35:09.291Z,3.05
2019-04-23T03:39:32.549Z,3.70
2019-04-23T03:44:26.316Z,3.10
2019-04-23T03:49:36.976Z,2.85
2019-04-23T03:52:02.957Z,2.80
2019-04-23T03:54:42.222Z,2.98
2019-04-23T03:57:16.867Z,3.22
2019-04-23T03:59:46.762Z,3.00
2019-04-23T04:02:20.601Z,2.72
2019-04-23T04:07:22.168Z,3.10
2019-04-23T04:09:47.656Z,3.00
2019-04-23T04:12:21.355Z,3.00
2019-04-23T04:14:57.706Z,3.15
2019-04-23T04:17:19.766Z,2.60
2019-04-23T04:19:56.926Z,3.40
2019-04-23T04:22:49.493Z,3.20
2019-04-23T04:25:02.078Z,2.95
2019-04-23T04:27:45.271Z,3.05
2019-04-23T04:32:54.535Z,3.22
2019-04-23T04:40:24.098Z,3.25
2019-04-23T04:42:42.294Z,3.20
2019-04-23T04:45:28.113Z,3.22
2019-04-23T04:47:49.348Z,2.95
2019-04-23T04:50:35.608Z,3.15
2019-04-23T04:57:58.236Z,2.90
2019-04-23T05:00:39.924Z,3.30
2019-04-23T05:03:12.598Z,3.22
2019-04-23T05:05:51.584Z,3.10
2019-04-23T05:07:54.771Z,3.30
2019-04-23T05:15:39.101Z,3.00
2019-04-23T05:18:20.617Z,3.50
2019-04-23T05:20:46.301Z,3.33
2019-04-23T05:25:44.730Z,3.45
2019-04-23T05:30:57.545Z,3.10
2019-04-23T05:33:21.906Z,3.30
2019-04-23T05:38:37.445Z,3.10
2019-04-23T05:41:03.737Z,3.60
2019-04-23T05:43:27.855Z,3.58
2019-04-23T05:46:09.658Z,3.25
2019-04-23T05:48:35.363Z,3.15
2019-04-23T05:56:06.448Z,3.52
2019-04-23T05:58:46.374Z,3.20
2019-04-23T06:04:19.510Z,2.77
2019-04-23T06:09:10.897Z,3.27
2019-04-23T06:11:45.236Z,3.47
2019-04-23T06:14:17.404Z,4.22
2019-04-23T06:16:41.977Z,3.50
2019-04-23T06:19:18.952Z,3.67
2019-04-23T06:24:29.273Z,3.02
2019-04-23T06:26:52.352Z,3.10
2019-04-23T06:29:26.084Z,3.37
2019-04-23T06:31:54.146Z,3.33
2019-04-23T06:36:57.251Z,3.52
2019-04-23T06:39:36.866Z,3.65
2019-04-23T06:42:00.446Z,3.60
2019-04-23T06:44:40.725Z,4.42
2019-04-23T06:47:06.915Z,3.70
2019-04-23T06:49:49.407Z,3.25
2019-04-23T06:52:18.964Z,3.60
2019-04-23T06:54:57.486Z,4.03
2019-04-23T06:57:22.415Z,3.75
2019-04-23T06:59:55.305Z,3.80
2019-04-23T07:05:05.211Z,3.72
2019-04-23T07:15:32.150Z,3.75
2019-04-23T07:17:46.584Z,3.22
2019-04-23T07:22:53.887Z,3.83
2019-04-23T07:25:23.954Z,3.58
2019-04-23T07:27:53.112Z,4.05
2019-04-23T07:33:01.863Z,3.70
2019-04-23T07:35:36.531Z,3.75
2019-04-23T07:38:31.510Z,3.55
2019-04-23T07:40:54.384Z,3.42
2019-04-23T07:43:34.930Z,3.47
2019-04-23T07:46:20.254Z,3.65
2019-04-23T07:48:38.870Z,4.47
2019-04-23T07:51:14.553Z,4.00
2019-04-23T07:53:48.218Z,3.80
2019-04-23T07:56:21.233Z,3.77
2019-04-23T07:58:48.038Z,3.98
2019-04-23T08:01:17.991Z,4.20
2019-04-23T08:06:19.222Z,4.47
2019-04-23T08:08:58.044Z,3.92
2019-04-23T08:11:42.650Z,3.92
2019-04-23T08:13:59.055Z,4.22
2019-04-23T08:19:13.991Z,4.27
2019-04-23T08:21:43.818Z,3.85
2019-04-23T08:26:53.569Z,4.28
2019-04-23T08:29:28.738Z,4.15
2019-04-23T08:32:06.907Z,4.28
2019-04-23T08:39:43.331Z,4.08
2019-04-23T08:45:07.109Z,4.20
2019-04-23T08:47:27.356Z,4.40
2019-04-23T08:52:48.254Z,4.12
2019-04-23T08:55:00.475Z,4.73
2019-04-23T09:00:14.167Z,4.17
2019-04-23T09:02:55.201Z,4.12
2019-04-23T09:05:11.092Z,4.10
2019-04-23T09:07:42.564Z,3.70
2019-04-23T09:10:15.390Z,4.22
2019-04-23T09:12:46.003Z,4.30
2019-04-23T09:15:18.547Z,3.77
2019-04-23T09:17:47.540Z,4.50
2019-04-23T09:20:27.768Z,3.90
2019-04-23T09:22:42.179Z,4.08
2019-04-23T09:27:45.304Z,3.95
2019-04-23T09:30:18.772Z,4.60
2019-04-23T09:32:57.178Z,4.40
2019-04-23T09:38:21.896Z,4.25
2019-04-23T09:44:07.850Z,4.30
2019-04-23T09:46:52.948Z,4.55
2019-04-23T09:51:52.961Z,5.15
2019-04-23T09:54:24.222Z,4.45
2019-04-23T09:56:52.063Z,4.78
2019-04-23T10:02:23.692Z,4.90
2019-04-23T10:04:51.855Z,4.90
2019-04-23T10:07:21.085Z,4.90
2019-04-23T10:09:40.531Z,5.10
2019-04-23T10:12:11.600Z,5.08
2019-04-23T10:14:51.836Z,5.33
2019-04-23T10:17:13.946Z,4.80
2019-04-23T10:19:48.682Z,4.85
2019-04-23T10:22:19.833Z,4.72
2019-04-23T10:24:50.863Z,4.70
2019-04-23T10:27:23.137Z,6.85
2019-04-23T10:29:57.023Z,5.97
2019-04-23T10:32:27.345Z,4.97
2019-04-23T10:35:10.191Z,5.67
2019-04-23T10:37:36.781Z,5.42
2019-04-23T10:40:07.433Z,4.97
2019-04-23T10:42:40.437Z,5.45
2019-04-23T10:45:26.921Z,5.50
2019-04-23T10:48:32.770Z,5.40
2019-04-23T10:51:05.954Z,5.22
2019-04-23T11:01:24.393Z,6.10
2019-04-23T11:06:17.640Z,5.53
2019-04-23T11:08:37.032Z,5.50
2019-04-23T11:11:14.618Z,5.20
2019-04-23T11:13:44.970Z,5.20
2019-04-23T11:21:31.372Z,6.10
2019-04-23T11:26:32.008Z,5.75
2019-04-23T11:28:55.521Z,5.90
2019-04-23T11:31:39.222Z,5.30
2019-04-23T11:34:12.523Z,5.22
2019-04-23T11:36:57.986Z,5.67
2019-04-23T11:38:58.531Z,6.40
2019-04-23T11:41:41.949Z,5.70
2019-04-23T11:46:53.406Z,6.45
2019-04-23T11:49:46.244Z,6.22
2019-04-23T11:54:30.850Z,6.28
2019-04-23T11:57:23.709Z,7.47
2019-04-23T11:59:36.021Z,6.70
2019-04-23T12:02:32.590Z,6.85
2019-04-23T12:05:28.082Z,6.53
2019-04-23T12:08:18.829Z,7.03
2019-04-23T12:10:47.770Z,9.28
2019-04-23T12:13:23.962Z,6.65
2019-04-23T12:15:47.938Z,7.37
2019-04-23T12:18:28.087Z,6.47
2019-04-23T12:21:12.861Z,7.05
2019-04-23T12:23:54.679Z,7.45
2019-04-23T12:26:35.914Z,7.30
2019-04-23T12:29:10.812Z,6.75
2019-04-23T12:31:40.100Z,8.05
2019-04-23T12:34:14.450Z,7.25
2019-04-23T12:37:10.109Z,7.08
2019-04-23T12:39:42.597Z,6.80
2019-04-23T12:42:45.123Z,7.37
2019-04-23T12:44:59.791Z,7.40
2019-04-23T12:47:43.600Z,7.47
2019-04-23T12:52:34.323Z,7.37
2019-04-23T12:55:06.823Z,7.65
2019-04-23T12:57:34.339Z,7.28
2019-04-23T13:05:11.830Z,7.03
2019-04-23T13:07:43.539Z,7.28
2019-04-23T13:10:28.109Z,7.40
2019-04-23T13:12:57.639Z,7.42
2019-04-23T13:15:18.922Z,7.55
2019-04-23T13:20:23.678Z,6.92
2019-04-23T13:22:54.875Z,7.00
2019-04-23T13:25:45.657Z,8.20
2019-04-23T13:33:30.711Z,8.35
2019-04-23T13:36:01.632Z,7.53
2019-04-23T13:38:33.193Z,7.08
2019-04-23T13:41:01.132Z,7.85
2019-04-23T13:43:38.060Z,7.65
2019-04-23T13:46:10.004Z,7.97
2019-04-23T13:48:24.755Z,8.20
2019-04-23T13:51:09.780Z,8.13
2019-04-23T13:56:13.278Z,7.55
2019-04-23T14:04:04.305Z,7.40
2019-04-23T14:09:17.412Z,7.60
2019-04-23T14:16:56.987Z,7.80
2019-04-23T14:19:11.468Z,7.47
2019-04-23T14:21:52.001Z,7.42
2019-04-23T14:24:19.501Z,7.45
2019-04-23T14:26:41.814Z,7.47
2019-04-23T14:29:16.929Z,7.12
2019-04-23T14:31:43.451Z,8.60
2019-04-23T14:34:19.559Z,7.90
2019-04-23T14:37:10.055Z,8.00
2019-04-23T14:39:24.102Z,8.55
2019-04-23T14:42:16.000Z,7.87
2019-04-23T14:44:31.573Z,8.28
2019-04-23T14:47:16.797Z,7.62
2019-04-23T14:50:14.707Z,7.72
2019-04-23T14:55:35.603Z,7.85
2019-04-23T14:57:45.198Z,7.45
2019-04-23T15:00:07.614Z,7.97
2019-04-23T15:02:44.638Z,7.72
2019-04-23T15:05:20.258Z,8.20
2019-04-23T15:07:45.806Z,7.58
2019-04-23T15:10:24.880Z,7.53
2019-04-23T15:12:52.384Z,8.03
2019-04-23T15:15:24.003Z,8.03
2019-04-23T15:18:04.149Z,8.35
2019-04-23T15:20:46.352Z,8.13
2019-04-23T15:23:33.618Z,7.90
2019-04-23T15:26:03.510Z,7.65
2019-04-23T15:31:32.988Z,8.20
2019-04-23T15:37:01.057Z,7.75
2019-04-23T15:45:20.969Z,7.53
2019-04-23T15:48:03.313Z,7.55
2019-04-23T15:53:03.212Z,6.87
2019-04-23T15:55:44.449Z,7.40
2019-04-23T15:58:16.896Z,7.30
2019-04-23T16:00:48.086Z,7.75
2019-04-23T16:02:50.588Z,7.60
2019-04-23T16:05:21.611Z,8.00
2019-04-23T16:08:13.109Z,8.35
2019-04-23T16:11:04.929Z,7.17
2019-04-23T16:13:38.444Z,7.72
2019-04-23T16:16:08.414Z,6.55
2019-04-23T16:21:47.294Z,7.15
2019-04-23T16:24:13.009Z,7.70
2019-04-23T16:26:52.386Z,6.58
2019-04-23T16:34:23.924Z,6.60
2019-04-23T16:36:55.784Z,6.80
2019-04-23T16:39:22.222Z,6.80
2019-04-23T16:42:02.247Z,6.97
2019-04-23T16:44:38.801Z,6.90
2019-04-23T16:47:10.841Z,8.03
2019-04-23T16:49:36.851Z,6.20
2019-04-23T16:52:07.578Z,7.03
2019-04-23T16:54:50.962Z,6.58
2019-04-23T17:00:03.756Z,6.95
2019-04-23T17:02:19.293Z,7.28
2019-04-23T17:04:54.705Z,6.70
2019-04-23T17:07:11.851Z,7.12
2019-04-23T17:10:00.304Z,7.10
2019-04-23T17:12:17.597Z,7.25
2019-04-23T17:15:05.379Z,6.87
2019-04-23T17:17:30.777Z,6.58
2019-04-23T17:20:28.829Z,7.03
2019-04-23T17:22:38.626Z,6.30
2019-04-23T17:27:48.887Z,6.80
2019-04-23T17:30:22.151Z,6.85
2019-04-23T17:32:57.090Z,7.00
2019-04-23T17:35:55.588Z,7.15
2019-04-23T17:41:10.145Z,7.53
2019-04-23T17:43:33.139Z,7.00
2019-04-23T17:46:12.542Z,7.05
2019-04-23T17:48:38.871Z,6.53
2019-04-23T17:51:19.672Z,7.15
2019-04-23T17:54:10.965Z,7.67
2019-04-23T17:57:02.931Z,7.40
2019-04-23T17:59:14.049Z,6.42
2019-04-23T18:02:00.413Z,6.75
2019-04-23T18:04:27.182Z,7.30
2019-04-23T18:06:58.428Z,7.42
2019-04-23T18:12:02.405Z,6.92
2019-04-23T18:14:21.572Z,7.87
2019-04-23T18:17:09.385Z,6.55
2019-04-23T18:19:34.330Z,7.50
2019-04-23T18:22:18.278Z,7.22
2019-04-23T18:25:04.335Z,7.75
2019-04-23T18:27:33.108Z,7.40
2019-04-23T18:30:16.122Z,7.87
2019-04-23T18:33:22.274Z,8.00
2019-04-23T18:35:28.250Z,7.90
2019-04-23T18:37:58.488Z,7.17
2019-04-23T18:40:31.251Z,7.70
2019-04-23T18:43:04.510Z,7.97
2019-04-23T18:45:39.597Z,7.40
2019-04-23T18:48:34.363Z,8.30
2019-04-23T18:50:55.329Z,7.87
2019-04-23T18:53:32.349Z,7.87
2019-04-23T18:58:38.268Z,7.50
2019-04-23T19:01:10.678Z,7.83
2019-04-23T19:06:32.858Z,8.10
2019-04-23T19:09:23.452Z,7.33
2019-04-23T19:12:07.167Z,7.83
2019-04-23T19:14:40.916Z,7.50
2019-04-23T19:17:38.643Z,7.55
2019-04-23T19:19:44.336Z,7.90
2019-04-23T19:24:38.998Z,7.55
2019-04-23T19:27:16.796Z,8.23
2019-04-23T19:29:59.838Z,7.92
2019-04-23T19:32:08.492Z,7.70
2019-04-23T19:34:42.742Z,7.50
2019-04-23T19:37:44.210Z,8.80
2019-04-23T19:40:00.912Z,8.20
2019-04-23T19:42:18.052Z,8.68
2019-04-23T19:47:41.451Z,8.38
2019-04-23T19:50:02.187Z,8.38
2019-04-23T19:52:52.592Z,8.95
2019-04-23T19:54:58.790Z,8.35
2019-04-23T20:00:04.336Z,8.48
2019-04-23T20:03:02.677Z,8.25
2019-04-23T20:05:07.140Z,8.73
2019-04-23T20:08:02.571Z,8.30
2019-04-23T20:10:11.706Z,7.90
2019-04-23T20:13:01.524Z,7.78
2019-04-23T20:15:18.043Z,7.92
2019-04-23T20:17:51.248Z,8.23
2019-04-23T20:20:25.447Z,7.67
2019-04-23T20:22:56.814Z,7.92
2019-04-23T20:28:14.990Z,7.55
2019-04-23T20:31:16.110Z,7.83
2019-04-23T20:34:07.653Z,7.95
2019-04-23T20:36:32.584Z,8.18
2019-04-23T20:38:59.414Z,7.40
2019-04-23T20:41:34.945Z,7.75
2019-04-23T20:46:33.852Z,8.00
2019-04-23T20:49:02.778Z,8.15
2019-04-23T20:51:34.407Z,7.85
2019-04-23T20:54:08.832Z,7.75
2019-04-23T20:56:42.465Z,7.92
2019-04-23T20:59:15.720Z,7.78
2019-04-23T21:02:00.476Z,8.48
2019-04-23T21:06:56.582Z,8.25
2019-04-23T21:11:59.194Z,8.55
2019-04-23T21:14:41.081Z,7.90
2019-04-23T21:16:56.092Z,8.05
2019-04-23T21:19:39.491Z,8.45
2019-04-23T21:22:09.567Z,8.15
2019-04-23T21:24:42.936Z,7.70
2019-04-23T21:27:15.344Z,7.87
2019-04-23T21:29:56.950Z,7.80
2019-04-23T21:32:27.274Z,7.80
2019-04-23T21:34:58.175Z,7.60
2019-04-23T21:37:23.842Z,7.03
2019-04-23T21:40:19.119Z,7.00
2019-04-23T21:45:02.203Z,6.62
2019-04-23T21:47:46.292Z,7.37
2019-04-23T21:50:14.119Z,7.37
2019-04-23T21:55:09.505Z,7.25
2019-04-23T21:57:57.870Z,6.92
2019-04-23T22:00:36.495Z,7.10
2019-04-23T22:02:59.441Z,7.12
2019-04-23T22:08:03.552Z,7.62
2019-04-23T22:10:25.629Z,6.95
2019-04-23T22:15:32.930Z,7.30
2019-04-23T22:20:34.457Z,7.78
2019-04-23T22:25:42.034Z,7.62
2019-04-23T22:28:05.301Z,7.53
2019-04-23T22:33:10.061Z,7.30
2019-04-23T22:35:54.333Z,7.33
2019-04-23T22:38:20.404Z,7.80
2019-04-23T22:41:01.906Z,7.30
2019-04-23T22:43:31.125Z,8.20
2019-04-23T22:48:47.694Z,7.35
2019-04-23T22:53:46.614Z,7.67
2019-04-23T22:56:17.767Z,6.95
2019-04-23T22:58:51.261Z,7.53
2019-04-23T23:03:59.024Z,8.33
2019-04-23T23:06:45.927Z,7.60
2019-04-23T23:11:35.425Z,8.65
2019-04-23T23:14:23.729Z,8.30
2019-04-23T23:19:21.735Z,8.13
2019-04-23T23:21:51.654Z,8.08
2019-04-23T23:24:14.531Z,8.35
2019-04-23T23:26:55.129Z,8.40
2019-04-23T23:29:20.293Z,8.40
2019-04-23T23:34:30.515Z,8.78
2019-04-23T23:37:03.745Z,7.80
2019-04-23T23:42:07.394Z,8.23
2019-04-23T23:47:07.341Z,9.23
2019-04-23T23:49:34.266Z,9.13
2019-04-23T23:52:13.189Z,9.23
2019-04-23T23:54:35.712Z,9.98
2019-04-23T23:57:21.403Z,9.63
